Terminal Aerodrome Forecast
Issued by NWS

Home | Current Version | Previous Version | Graphics & Text | Print | Product List | Glossary On
Versions: 1 2 3 4 5 6 7 8 9 10 11 12 13
515
FTUS43 KTOP 191724
TAFFOE
TAF
KFOE 191724Z 1918/2018 04006KT P6SM SKC
     FM200000 09005KT P6SM FEW200
     FM201500 13012G19KT P6SM SCT200=

USA.gov is the U.S. government's official web portal to all federal, state and local government web resources and services.